createdAt,value
2023-02-15T00:01:52.142Z,14.30
2023-02-15T00:04:22.944Z,12.90
2023-02-15T00:06:52.846Z,12.00
2023-02-15T00:09:22.434Z,13.50
2023-02-15T00:11:52.170Z,13.70
2023-02-15T00:14:22.406Z,13.80
2023-02-15T00:16:55.438Z,12.90
2023-02-15T00:19:28.075Z,14.00
2023-02-15T00:21:57.677Z,12.60
2023-02-15T00:24:27.284Z,13.50
2023-02-15T00:26:56.545Z,12.70
2023-02-15T00:29:26.279Z,12.90
2023-02-15T00:31:55.538Z,13.70
2023-02-15T00:34:27.755Z,14.10
2023-02-15T00:36:59.203Z,14.80
2023-02-15T00:39:29.472Z,14.30
2023-02-15T00:41:58.725Z,14.30
2023-02-15T00:44:28.028Z,12.80
2023-02-15T00:46:59.070Z,15.40
2023-02-15T00:49:28.419Z,14.10
2023-02-15T00:51:57.695Z,13.60
2023-02-15T00:54:29.904Z,12.90
2023-02-15T00:56:59.574Z,13.40
2023-02-15T00:59:28.981Z,14.10
2023-02-15T01:01:58.580Z,14.60
2023-02-15T01:04:27.905Z,15.90
2023-02-15T01:06:59.751Z,14.90
2023-02-15T01:09:30.412Z,14.00
2023-02-15T01:12:00.649Z,16.20
2023-02-15T01:14:29.769Z,15.20
2023-02-15T01:16:58.865Z,15.70
2023-02-15T01:19:30.470Z,15.90
2023-02-15T01:21:59.676Z,16.10
2023-02-15T01:24:29.380Z,15.90
2023-02-15T01:26:58.715Z,15.50
2023-02-15T01:29:29.714Z,14.80
2023-02-15T01:31:59.088Z,14.00
2023-02-15T01:34:28.449Z,15.40
2023-02-15T01:36:59.813Z,15.50
2023-02-15T01:39:29.289Z,15.80
2023-02-15T01:41:59.536Z,16.70
2023-02-15T01:44:51.066Z,16.10
2023-02-15T01:47:24.542Z,16.40
2023-02-15T01:50:01.402Z,14.90
2023-02-15T01:52:31.269Z,16.30
2023-02-15T01:55:00.640Z,15.70
2023-02-15T01:57:30.069Z,15.40
2023-02-15T02:00:01.444Z,15.70
2023-02-15T02:02:43.158Z,15.60
2023-02-15T02:05:12.849Z,17.20
2023-02-15T02:07:45.101Z,15.30
2023-02-15T02:10:18.608Z,14.70
2023-02-15T02:12:50.031Z,15.10
2023-02-15T02:15:19.923Z,16.00
2023-02-15T02:17:58.469Z,15.10
2023-02-15T02:20:57.042Z,19.10
2023-02-15T02:23:45.279Z,18.10
2023-02-15T02:26:56.368Z,18.10
2023-02-15T02:29:41.234Z,19.50
2023-02-15T02:32:45.339Z,18.40
2023-02-15T02:35:20.272Z,17.70
2023-02-15T02:37:55.790Z,16.80
2023-02-15T02:40:29.846Z,17.70
2023-02-15T02:43:03.139Z,18.90
2023-02-15T02:45:44.627Z,18.90
2023-02-15T02:48:16.592Z,18.90
2023-02-15T02:50:46.091Z,18.70
2023-02-15T02:53:15.370Z,18.10
2023-02-15T02:55:48.203Z,18.90
2023-02-15T02:58:23.686Z,17.80
2023-02-15T03:00:55.852Z,17.50
2023-02-15T03:03:28.677Z,17.00
2023-02-15T03:06:00.740Z,17.60
2023-02-15T03:08:37.531Z,18.70
2023-02-15T03:11:07.526Z,18.00
2023-02-15T03:13:41.434Z,18.10
2023-02-15T03:16:27.293Z,17.90
2023-02-15T03:18:58.702Z,17.50
2023-02-15T03:21:34.297Z,17.00
2023-02-15T03:24:08.813Z,18.10
2023-02-15T03:26:39.758Z,17.90
2023-02-15T03:29:12.489Z,16.80
2023-02-15T03:31:45.107Z,16.80
2023-02-15T03:34:16.095Z,18.30
2023-02-15T03:36:50.095Z,18.20
2023-02-15T03:39:26.402Z,16.90
2023-02-15T03:42:01.655Z,19.50
2023-02-15T03:44:32.386Z,18.50
2023-02-15T03:47:07.267Z,18.70
2023-02-15T03:49:42.133Z,20.20
2023-02-15T03:54:47.107Z,19.70
2023-02-15T03:57:38.514Z,19.10
2023-02-15T04:00:33.512Z,20.20
2023-02-15T04:03:23.906Z,18.30
2023-02-15T04:05:54.351Z,19.30
2023-02-15T04:08:44.133Z,18.20
2023-02-15T04:11:13.715Z,20.10
2023-02-15T04:13:43.545Z,21.20
2023-02-15T04:16:12.859Z,20.70
2023-02-15T04:19:01.946Z,20.20
2023-02-15T04:21:50.650Z,20.20
2023-02-15T04:24:38.413Z,19.90
2023-02-15T04:27:08.108Z,21.50
2023-02-15T04:29:39.749Z,21.00
2023-02-15T04:32:09.331Z,20.70
2023-02-15T04:34:38.672Z,19.70
2023-02-15T04:37:08.087Z,19.50
2023-02-15T04:39:37.204Z,21.20
2023-02-15T04:42:07.096Z,21.00
2023-02-15T04:44:36.807Z,21.30
2023-02-15T04:47:06.090Z,22.70
2023-02-15T04:49:35.391Z,21.70
2023-02-15T04:52:05.439Z,20.30
2023-02-15T04:54:34.711Z,20.10
2023-02-15T04:57:04.018Z,18.70
2023-02-15T04:59:33.560Z,20.90
2023-02-15T05:02:02.902Z,20.30
2023-02-15T05:04:32.782Z,20.70
2023-02-15T05:07:02.234Z,20.20
2023-02-15T05:09:31.590Z,19.60
2023-02-15T05:12:01.052Z,20.60
2023-02-15T05:14:30.568Z,20.80
2023-02-15T05:17:03.781Z,20.30
2023-02-15T05:19:34.106Z,21.00
2023-02-15T05:22:03.395Z,19.30
2023-02-15T05:24:51.351Z,19.20
2023-02-15T05:28:05.156Z,18.30
2023-02-15T05:30:35.991Z,17.70
2023-02-15T05:33:05.818Z,20.80
2023-02-15T05:35:38.596Z,23.10
2023-02-15T05:38:10.741Z,18.20
2023-02-15T05:40:40.195Z,19.50
2023-02-15T05:43:09.956Z,19.60
2023-02-15T05:45:39.388Z,19.50
2023-02-15T05:48:08.548Z,20.70
2023-02-15T05:50:40.681Z,19.90
2023-02-15T05:53:11.457Z,19.10
2023-02-15T05:55:43.905Z,19.00
2023-02-15T05:58:13.414Z,20.10
2023-02-15T06:00:42.919Z,18.90
2023-02-15T06:03:12.174Z,19.70
2023-02-15T06:05:42.431Z,19.50
2023-02-15T06:08:12.365Z,19.80
2023-02-15T06:10:41.490Z,20.20
2023-02-15T06:13:11.432Z,21.00
2023-02-15T06:15:41.346Z,19.70
2023-02-15T06:18:11.351Z,21.30
2023-02-15T06:20:40.915Z,22.20
2023-02-15T06:23:10.365Z,20.00
2023-02-15T06:25:40.115Z,21.40
2023-02-15T06:28:11.143Z,19.00
2023-02-15T06:30:40.928Z,19.80
2023-02-15T06:33:10.584Z,21.00
2023-02-15T06:35:40.155Z,22.80
2023-02-15T06:38:12.385Z,19.60
2023-02-15T06:40:42.258Z,20.30
2023-02-15T06:43:11.493Z,20.00
2023-02-15T06:45:41.105Z,20.30
2023-02-15T06:48:11.682Z,19.10
2023-02-15T06:50:41.446Z,18.60
2023-02-15T06:53:10.701Z,19.10
2023-02-15T06:55:40.545Z,17.90
2023-02-15T06:58:11.910Z,17.70
2023-02-15T07:00:41.367Z,18.10
2023-02-15T07:03:15.098Z,18.50
2023-02-15T07:06:10.979Z,20.50
2023-02-15T07:08:40.863Z,21.10
2023-02-15T07:11:29.511Z,18.80
2023-02-15T07:14:23.594Z,17.90
2023-02-15T07:16:53.676Z,18.40
2023-02-15T07:19:23.046Z,20.00
2023-02-15T07:21:52.923Z,18.40
2023-02-15T07:24:22.308Z,18.10
2023-02-15T07:26:51.671Z,18.60
2023-02-15T07:29:21.446Z,19.30
2023-02-15T07:31:53.810Z,18.80
2023-02-15T07:34:23.553Z,19.40
2023-02-15T07:36:54.251Z,19.40
2023-02-15T07:39:23.638Z,20.40
2023-02-15T07:41:53.321Z,18.10
2023-02-15T07:44:22.871Z,19.90
2023-02-15T07:46:52.978Z,19.50
2023-02-15T07:49:22.626Z,18.50
2023-02-15T07:51:56.724Z,18.80
2023-02-15T07:54:26.089Z,19.20
2023-02-15T07:56:55.777Z,19.60
2023-02-15T07:59:25.160Z,20.70
2023-02-15T08:01:56.605Z,21.80
2023-02-15T08:04:26.082Z,20.80
2023-02-15T08:06:55.815Z,19.80
2023-02-15T08:09:25.358Z,22.60
2023-02-15T08:11:55.158Z,21.30
2023-02-15T08:14:25.952Z,20.50
2023-02-15T08:16:56.738Z,20.30
2023-02-15T08:19:26.804Z,19.50
2023-02-15T08:21:57.728Z,18.30
2023-02-15T08:24:27.972Z,17.90
2023-02-15T08:26:57.377Z,18.20
2023-02-15T08:29:28.147Z,16.90
2023-02-15T08:32:02.459Z,18.60
2023-02-15T08:34:34.099Z,18.90
2023-02-15T08:37:03.568Z,19.20
2023-02-15T08:39:32.885Z,19.60
2023-02-15T08:42:02.181Z,17.80
2023-02-15T08:44:31.410Z,18.60
2023-02-15T08:47:03.930Z,19.10
2023-02-15T08:49:33.316Z,17.70
2023-02-15T08:52:02.899Z,19.50
2023-02-15T08:54:32.525Z,18.50
2023-02-15T08:57:01.838Z,19.60
2023-02-15T08:59:30.962Z,21.40
2023-02-15T09:02:00.068Z,27.00
2023-02-15T09:04:29.475Z,26.40
2023-02-15T09:06:58.639Z,19.00
2023-02-15T09:09:28.011Z,19.50
2023-02-15T09:11:59.482Z,18.80
2023-02-15T09:14:29.425Z,18.30
2023-02-15T09:16:58.930Z,18.30
2023-02-15T09:19:28.559Z,17.80
2023-02-15T09:22:01.045Z,19.60
2023-02-15T09:24:34.825Z,18.80
2023-02-15T09:27:04.269Z,19.40
2023-02-15T09:29:33.571Z,17.40
2023-02-15T09:32:02.949Z,17.70
2023-02-15T09:34:34.797Z,18.30
2023-02-15T09:37:06.056Z,19.00
2023-02-15T09:39:39.467Z,18.00
2023-02-15T09:42:47.139Z,19.50
2023-02-15T09:45:27.960Z,18.10
2023-02-15T09:48:30.106Z,19.80
2023-02-15T09:51:10.308Z,17.90
2023-02-15T09:53:56.178Z,21.30
2023-02-15T09:56:37.342Z,18.50
2023-02-15T09:59:12.553Z,17.80
2023-02-15T10:01:51.307Z,16.30
2023-02-15T10:04:34.292Z,16.40
2023-02-15T10:07:12.361Z,16.10
2023-02-15T10:09:55.383Z,19.10
2023-02-15T10:12:41.326Z,15.70
2023-02-15T10:15:32.130Z,16.00
2023-02-15T10:18:22.414Z,17.80
2023-02-15T10:20:59.095Z,16.70
2023-02-15T10:23:42.756Z,14.20
2023-02-15T10:26:16.338Z,14.90
2023-02-15T10:28:49.514Z,14.30
2023-02-15T10:31:25.338Z,11.60
2023-02-15T10:34:20.738Z,10.80
2023-02-15T10:37:11.845Z,11.30
2023-02-15T10:39:47.683Z,11.10
2023-02-15T10:42:26.887Z,13.10
2023-02-15T10:45:14.533Z,12.00
2023-02-15T10:48:00.471Z,10.90
2023-02-15T10:50:37.766Z,14.60
2023-02-15T10:53:16.962Z,15.00
2023-02-15T10:55:53.528Z,12.00
2023-02-15T10:58:31.339Z,10.80
2023-02-15T11:01:08.554Z,11.20
2023-02-15T11:03:50.899Z,10.80
2023-02-15T11:06:21.786Z,10.60
2023-02-15T11:08:53.738Z,10.00
2023-02-15T11:11:25.037Z,10.30
2023-02-15T11:14:21.521Z,9.60
2023-02-15T11:16:53.462Z,9.30
2023-02-15T11:19:24.174Z,8.80
2023-02-15T11:21:56.307Z,8.30
2023-02-15T11:24:29.157Z,7.00
2023-02-15T11:27:03.856Z,6.90
2023-02-15T11:29:35.875Z,8.80
2023-02-15T11:35:03.796Z,5.80
2023-02-15T11:37:37.204Z,5.90
2023-02-15T11:40:20.530Z,6.30
2023-02-15T11:42:50.785Z,6.00
2023-02-15T11:45:26.420Z,7.00
2023-02-15T11:47:56.692Z,7.00
2023-02-15T11:50:50.053Z,5.80
2023-02-15T11:53:21.593Z,5.20
2023-02-15T11:55:52.022Z,6.90
2023-02-15T11:58:29.467Z,5.90
2023-02-15T12:01:07.412Z,3.90
2023-02-15T12:03:45.438Z,4.60
2023-02-15T12:06:20.045Z,4.70
2023-02-15T12:08:52.815Z,4.30
2023-02-15T12:11:26.902Z,4.20
2023-02-15T12:13:58.041Z,3.80
2023-02-15T12:16:28.406Z,3.80
2023-02-15T12:18:59.720Z,3.70
2023-02-15T12:21:31.886Z,4.40
2023-02-15T12:24:15.189Z,3.50
2023-02-15T12:26:50.247Z,3.30
2023-02-15T12:29:22.526Z,2.60
2023-02-15T12:31:53.242Z,3.00
2023-02-15T12:34:26.414Z,4.80
2023-02-15T12:36:58.256Z,4.10
2023-02-15T12:39:28.339Z,3.60
2023-02-15T12:42:02.917Z,3.00
2023-02-15T12:44:33.954Z,3.70
2023-02-15T12:47:05.541Z,2.80
2023-02-15T12:49:37.882Z,2.90
2023-02-15T12:52:24.130Z,3.30
2023-02-15T12:54:54.182Z,3.80
2023-02-15T12:57:36.590Z,2.60
2023-02-15T13:00:12.949Z,2.80
2023-02-15T13:02:48.348Z,3.30
2023-02-15T13:05:23.948Z,3.90
2023-02-15T13:07:56.315Z,4.50
2023-02-15T13:10:59.505Z,2.90
2023-02-15T13:13:32.483Z,2.10
2023-02-15T13:16:03.043Z,2.40
2023-02-15T13:18:35.245Z,2.30
2023-02-15T13:21:11.063Z,2.30
2023-02-15T13:23:42.395Z,2.60
2023-02-15T13:26:15.820Z,2.10
2023-02-15T13:28:47.838Z,1.80
2023-02-15T13:31:18.867Z,2.00
2023-02-15T13:33:52.254Z,2.20
2023-02-15T13:36:26.963Z,1.90
2023-02-15T13:39:08.849Z,2.20
2023-02-15T13:41:54.620Z,5.80
2023-02-15T13:44:30.985Z,2.50
2023-02-15T13:47:10.842Z,2.60
2023-02-15T13:49:49.473Z,3.30
2023-02-15T13:52:22.980Z,3.10
2023-02-15T13:55:15.260Z,2.80
2023-02-15T13:58:03.408Z,2.70
2023-02-15T14:00:48.525Z,2.90
2023-02-15T14:03:43.404Z,3.00
2023-02-15T14:06:20.960Z,2.60
2023-02-15T14:09:02.300Z,1.80
2023-02-15T14:11:38.474Z,2.20
2023-02-15T14:14:47.329Z,1.70
2023-02-15T14:17:23.884Z,2.60
2023-02-15T14:20:01.134Z,2.50
2023-02-15T14:22:35.255Z,1.90
2023-02-15T14:25:20.119Z,3.20
2023-02-15T14:28:00.372Z,2.00
2023-02-15T14:30:32.540Z,1.90
2023-02-15T14:33:07.615Z,1.80
2023-02-15T14:35:37.518Z,1.60
2023-02-15T14:38:14.523Z,1.60
2023-02-15T14:41:02.271Z,4.30
2023-02-15T14:43:42.026Z,3.00
2023-02-15T14:46:20.730Z,2.20
2023-02-15T14:48:52.399Z,2.20
2023-02-15T14:51:58.434Z,1.60
2023-02-15T14:54:57.041Z,1.90
2023-02-15T14:57:28.717Z,3.20
2023-02-15T14:59:59.940Z,3.50
2023-02-15T15:02:40.779Z,2.40
2023-02-15T15:05:16.766Z,2.20
2023-02-15T15:07:48.463Z,2.70
2023-02-15T15:10:41.791Z,2.20
2023-02-15T15:13:53.994Z,1.70
2023-02-15T15:16:31.388Z,2.40
2023-02-15T15:19:02.473Z,3.60
2023-02-15T15:21:58.799Z,5.70
2023-02-15T15:24:54.759Z,7.10
2023-02-15T15:27:44.328Z,3.80
2023-02-15T15:30:54.905Z,3.30
2023-02-15T15:33:55.998Z,3.00
2023-02-15T15:36:56.453Z,3.20
2023-02-15T15:40:08.863Z,3.50
2023-02-15T15:42:50.032Z,6.60
2023-02-15T15:45:38.509Z,8.90
2023-02-15T15:48:32.896Z,7.50
2023-02-15T15:51:26.652Z,7.80
2023-02-15T15:53:56.525Z,6.50
2023-02-15T15:56:30.241Z,5.70
2023-02-15T15:59:01.663Z,4.70
2023-02-15T16:01:35.071Z,5.10
2023-02-15T16:04:04.423Z,3.90
2023-02-15T16:06:36.596Z,3.20
2023-02-15T16:09:20.900Z,3.20
2023-02-15T16:11:52.291Z,6.50
2023-02-15T16:14:27.646Z,4.60
2023-02-15T16:16:58.800Z,6.20
2023-02-15T16:19:30.606Z,6.90
2023-02-15T16:22:01.172Z,8.00
2023-02-15T16:24:46.438Z,21.00
2023-02-15T16:27:35.414Z,9.00
2023-02-15T16:30:26.154Z,7.80
2023-02-15T16:32:57.095Z,6.00
2023-02-15T16:35:26.352Z,9.00
2023-02-15T16:37:55.787Z,9.50
2023-02-15T16:40:42.876Z,8.00
2023-02-15T16:43:19.552Z,11.40
2023-02-15T16:45:51.028Z,9.20
2023-02-15T16:48:22.872Z,15.30
2023-02-15T16:50:56.058Z,10.70
2023-02-15T16:53:27.543Z,7.70
2023-02-15T16:55:58.253Z,9.10
2023-02-15T16:58:37.064Z,8.70
2023-02-15T17:01:09.741Z,5.20
2023-02-15T17:03:39.329Z,5.70
2023-02-15T17:06:22.576Z,5.30
2023-02-15T17:08:55.411Z,5.40
2023-02-15T17:11:35.783Z,5.70
2023-02-15T17:14:22.488Z,11.70
2023-02-15T17:17:00.920Z,10.40
2023-02-15T17:19:31.717Z,10.70
2023-02-15T17:22:02.205Z,14.20
2023-02-15T17:24:36.987Z,14.00
2023-02-15T17:27:31.423Z,13.50
2023-02-15T17:30:03.463Z,10.70
2023-02-15T17:32:34.835Z,10.10
2023-02-15T17:35:19.764Z,9.90
2023-02-15T17:37:50.118Z,22.90
2023-02-15T17:40:24.867Z,11.90
2023-02-15T17:45:35.132Z,8.90
2023-02-15T17:48:16.004Z,9.00
2023-02-15T17:50:45.434Z,8.30
2023-02-15T17:53:16.997Z,8.00
2023-02-15T17:55:46.578Z,6.60
2023-02-15T17:58:18.729Z,8.20
2023-02-15T18:01:08.839Z,10.60
2023-02-15T18:04:01.330Z,8.70
2023-02-15T18:06:49.433Z,8.30
2023-02-15T18:09:38.386Z,7.70
2023-02-15T18:12:20.206Z,6.70
2023-02-15T18:14:50.079Z,5.90
2023-02-15T18:17:19.710Z,7.10
2023-02-15T18:19:49.255Z,5.70
2023-02-15T18:22:27.971Z,6.50
2023-02-15T18:24:57.260Z,6.80
2023-02-15T18:27:26.722Z,6.00
2023-02-15T18:29:56.285Z,6.20
2023-02-15T18:32:32.366Z,6.50
2023-02-15T18:35:03.104Z,7.10
2023-02-15T18:37:32.999Z,6.70
2023-02-15T18:40:03.887Z,7.60
2023-02-15T18:42:34.640Z,7.80
2023-02-15T18:45:15.775Z,7.80
2023-02-15T18:47:45.126Z,9.10
2023-02-15T18:50:15.032Z,7.90
2023-02-15T18:52:46.530Z,8.60
2023-02-15T18:55:33.626Z,9.40
2023-02-15T19:07:57.961Z,10.70
2023-02-15T19:11:03.994Z,11.90
2023-02-15T19:16:41.941Z,10.50
2023-02-15T19:26:20.838Z,12.10
2023-02-15T19:28:51.327Z,12.10
2023-02-15T19:31:38.914Z,11.10
2023-02-15T19:34:43.550Z,12.90
2023-02-15T19:37:35.203Z,13.80
2023-02-15T19:40:23.368Z,11.60
2023-02-15T19:48:46.500Z,12.20
2023-02-15T19:52:04.149Z,12.10
2023-02-15T20:04:57.162Z,11.70
2023-02-15T20:10:54.049Z,13.60
2023-02-15T20:19:29.655Z,13.40
2023-02-15T20:25:20.204Z,11.80
2023-02-15T20:31:48.644Z,11.50
2023-02-15T20:37:49.604Z,14.10
2023-02-15T20:47:16.623Z,15.00
2023-02-15T20:56:33.809Z,14.70
2023-02-15T21:03:09.317Z,14.70
2023-02-15T21:12:35.573Z,13.20
2023-02-15T21:15:51.377Z,14.40
2023-02-15T21:19:18.289Z,15.50
2023-02-15T21:22:17.520Z,15.30
2023-02-15T21:25:30.358Z,13.70
2023-02-15T21:35:11.945Z,14.30
2023-02-15T21:58:13.399Z,16.10
2023-02-15T22:01:18.829Z,15.30
2023-02-15T22:04:34.884Z,15.70
2023-02-15T22:23:31.362Z,16.40
2023-02-15T22:26:45.727Z,16.30
2023-02-15T22:33:00.113Z,16.10
2023-02-15T22:35:48.401Z,16.00
